Time;durP1;ratioP1;P1;durP2;ratioP2;P2;SDS_P1;SDS_P2;PMS_P1;PMS_P2;Temp;Humidity;BMP_temperature;BMP_pressure;BME280_temperature;BME280_humidity;BME280_pressure;Samples;Min_cycle;Max_cycle;Signal;HPM_P1;HPM_P2
2021/09/23 00:00:33;;;;;;;6.73;4.50;;;;;;;;;;4974973;28;20450;-88
2021/09/23 00:05:55;;;;;;;6.03;4.63;;;7.80;99.90;;;;;;4974047;28;20454;-89
2021/09/23 00:08:23;;;;;;;8.00;4.43;;;;;;;;;;4971912;28;20945;-88
2021/09/23 00:10:50;;;;;;;5.80;4.30;;;;;;;;;;4975094;28;20454;-88
2021/09/23 00:13:18;;;;;;;5.90;4.93;;;;;;;;;;4969841;28;20447;-89
2021/09/23 00:15:45;;;;;;;7.60;5.20;;;;;;;;;;4971868;28;21012;-88
2021/09/23 00:18:14;;;;;;;6.27;5.10;;;7.80;99.90;;;;;;4973967;28;20473;-88
2021/09/23 00:20:44;;;;;;;8.70;4.60;;;7.80;99.90;;;;;;4969141;28;20467;-88
2021/09/23 00:23:13;;;;;;;5.13;4.63;;;7.80;99.90;;;;;;4974646;28;20470;-89
2021/09/23 00:25:40;;;;;;;8.77;5.00;;;;;;;;;;4970420;28;20448;-88
2021/09/23 00:28:09;;;;;;;6.13;5.20;;;7.80;99.90;;;;;;4974543;28;20458;-89
2021/09/23 00:30:37;;;;;;;6.50;4.57;;;7.80;99.90;;;;;;4970555;28;20462;-89
2021/09/23 00:33:04;;;;;;;5.10;4.60;;;;;;;;;;4971029;28;20464;-88
2021/09/23 00:35:32;;;;;;;5.73;5.13;;;;;;;;;;4972463;28;20490;-88
2021/09/23 00:37:59;;;;;;;6.77;5.03;;;;;;;;;;4974722;28;20446;-88
2021/09/23 00:40:28;;;;;;;6.40;4.40;;;7.70;99.90;;;;;;4972965;28;20469;-88
2021/09/23 00:42:55;;;;;;;8.43;5.57;;;;;;;;;;4969447;28;20886;-89
2021/09/23 00:45:23;;;;;;;7.60;5.40;;;7.60;99.90;;;;;;4974317;28;20463;-88
2021/09/23 00:47:50;;;;;;;6.90;4.90;;;;;;;;;;4973183;28;20454;-89
2021/09/23 00:50:20;;;;;;;7.57;5.10;;;7.60;99.90;;;;;;4970963;28;20446;-89
2021/09/23 00:52:47;;;;;;;5.70;4.13;;;;;;;;;;4971032;28;20558;-89
2021/09/23 00:55:15;;;;;;;5.30;4.73;;;;;;;;;;4971528;28;20493;-89
2021/09/23 00:57:44;;;;;;;4.77;3.90;;;7.50;99.90;;;;;;4974547;28;20504;-89
2021/09/23 01:00:14;;;;;;;9.13;4.60;;;7.40;99.90;;;;;;4975841;28;20438;-88
2021/09/23 01:02:41;;;;;;;5.30;4.20;;;;;;;;;;4973838;28;20442;-89
2021/09/23 01:05:10;;;;;;;6.37;4.87;;;7.50;99.90;;;;;;4974466;28;20446;-89
2021/09/23 01:07:43;;;;;;;4.90;3.80;;;7.40;99.90;;;;;;4970001;28;20446;-90
2021/09/23 01:10:11;;;;;;;5.90;4.47;;;;;;;;;;4973958;28;20451;-88
2021/09/23 01:12:38;;;;;;;5.80;4.67;;;;;;;;;;4971398;28;20446;-89
2021/09/23 01:15:08;;;;;;;5.00;4.23;;;7.40;99.90;;;;;;4972426;28;20490;-88
2021/09/23 01:17:35;;;;;;;7.43;4.70;;;;;;;;;;4973440;28;20450;-88
2021/09/23 01:20:02;;;;;;;5.90;4.47;;;;;;;;;;4974006;28;20926;-89
2021/09/23 01:22:31;;;;;;;5.93;4.27;;;7.40;99.90;;;;;;4974169;28;20470;-88
2021/09/23 01:24:58;;;;;;;7.93;4.67;;;;;;;;;;4967621;28;20461;-87
2021/09/23 01:27:25;;;;;;;5.83;4.20;;;;;;;;;;4974348;28;20442;-88
2021/09/23 01:29:52;;;;;;;4.37;3.90;;;;;;;;;;4970871;28;20517;-88
2021/09/23 01:32:21;;;;;;;5.10;4.60;;;;;;;;;;4973299;28;20454;-88
2021/09/23 01:34:48;;;;;;;6.37;4.63;;;;;;;;;;4974197;28;20489;-88
2021/09/23 01:37:16;;;;;;;5.43;3.80;;;7.40;99.90;;;;;;4974126;28;20786;-89
2021/09/23 01:39:44;;;;;;;7.47;3.80;;;7.40;99.90;;;;;;4973951;28;20454;-89
2021/09/23 01:42:11;;;;;;;5.97;4.10;;;;;;;;;;4973753;28;20458;-88
2021/09/23 01:44:39;;;;;;;6.03;4.00;;;;;;;;;;4969699;28;20499;-88
2021/09/23 01:47:06;;;;;;;4.53;4.03;;;;;;;;;;4982943;28;20454;-88
2021/09/23 01:49:33;;;;;;;4.60;3.67;;;;;;;;;;4981665;28;20461;-90
2021/09/23 01:52:01;;;;;;;5.00;4.00;;;;;;;;;;4974322;28;20477;-89
2021/09/23 01:54:28;;;;;;;6.60;4.17;;;;;;;;;;4969119;28;20938;-89
2021/09/23 01:56:57;;;;;;;4.63;3.90;;;7.40;99.90;;;;;;4973710;28;20469;-88
2021/09/23 01:59:24;;;;;;;5.13;4.57;;;;;;;;;;4968388;28;20956;-87
2021/09/23 02:01:52;;;;;;;6.60;4.87;;;7.10;99.90;;;;;;4972928;28;20454;-89
2021/09/23 02:04:19;;;;;;;5.93;4.23;;;;;;;;;;4966969;28;20450;-91
2021/09/23 02:06:46;;;;;;;6.30;3.93;;;;;;;;;;4973279;28;20457;-89
2021/09/23 02:09:14;;;;;;;4.60;4.20;;;;;;;;;;4973565;28;20952;-88
2021/09/23 02:11:41;;;;;;;5.50;3.93;;;;;;;;;;4974279;28;20442;-87
2021/09/23 02:14:10;;;;;;;6.60;4.53;;;;;;;;;;4975051;28;20446;-88
2021/09/23 02:16:37;;;;;;;4.97;4.50;;;;;;;;;;4976100;28;20811;-90
2021/09/23 02:19:05;;;;;;;7.30;4.13;;;;;;;;;;4976839;28;20559;-88
2021/09/23 02:21:32;;;;;;;4.87;3.33;;;;;;;;;;4976858;28;20461;-87
2021/09/23 02:23:59;;;;;;;4.83;4.33;;;;;;;;;;4973941;28;20465;-89
2021/09/23 02:26:26;;;;;;;5.90;3.87;;;;;;;;;;4977182;28;20458;-89
2021/09/23 02:28:53;;;;;;;5.27;4.27;;;;;;;;;;4979030;28;20957;-88
2021/09/23 02:31:22;;;;;;;4.73;4.27;;;7.00;99.90;;;;;;4982193;28;20438;-89
2021/09/23 02:33:49;;;;;;;3.87;3.40;;;;;;;;;;4977174;28;20489;-89
2021/09/23 02:36:16;;;;;;;3.93;3.53;;;;;;;;;;4976194;28;20989;-88
2021/09/23 02:38:43;;;;;;;6.07;4.37;;;;;;;;;;4973460;28;20477;-88
2021/09/23 02:41:10;;;;;;;6.03;4.03;;;;;;;;;;4974562;28;20450;-88
2021/09/23 02:43:38;;;;;;;4.40;3.97;;;;;;;;;;4973638;28;20469;-88
2021/09/23 02:46:05;;;;;;;4.50;4.00;;;;;;;;;;4977739;28;20449;-89
2021/09/23 02:48:33;;;;;;;4.90;4.07;;;7.00;99.90;;;;;;4972298;28;20550;-88
2021/09/23 02:51:00;;;;;;;3.93;3.47;;;;;;;;;;4977798;28;20449;-89
2021/09/23 02:53:28;;;;;;;3.83;3.40;;;;;;;;;;4978309;28;20917;-88
2021/09/23 02:55:55;;;;;;;5.57;4.17;;;;;;;;;;4978139;28;20520;-88
2021/09/23 02:58:22;;;;;;;4.77;4.00;;;;;;;;;;4976411;28;20973;-90
2021/09/23 03:00:49;;;;;;;7.60;3.63;;;;;;;;;;4971398;28;20450;-88
2021/09/23 03:03:16;;;;;;;4.67;4.07;;;;;;;;;;4971722;28;20450;-88
2021/09/23 03:05:45;;;;;;;4.60;4.03;;;;;;;;;;4976562;28;20454;-89
2021/09/23 03:08:13;;;;;;;5.53;4.10;;;;;;;;;;4976288;28;20461;-89
2021/09/23 03:10:40;;;;;;;4.77;3.93;;;;;;;;;;4975625;28;20505;-88
2021/09/23 03:13:07;;;;;;;4.40;3.80;;;;;;;;;;4973321;28;20442;-89
2021/09/23 03:15:35;;;;;;;3.93;3.53;;;;;;;;;;4975909;28;20490;-91
2021/09/23 03:18:02;;;;;;;3.97;3.43;;;;;;;;;;4975372;28;20465;-89
2021/09/23 03:20:30;;;;;;;5.13;3.90;;;;;;;;;;4975516;28;20505;-89
2021/09/23 03:23:00;;;;;;;5.93;3.40;;;6.70;99.90;;;;;;4975823;28;20477;-88
2021/09/23 03:25:28;;;;;;;5.37;3.73;;;;;;;;;;4975740;28;20478;-89
2021/09/23 03:27:55;;;;;;;5.90;4.17;;;;;;;;;;4976114;28;20446;-90
2021/09/23 03:30:22;;;;;;;4.47;4.07;;;;;;;;;;4975819;28;20461;-89
2021/09/23 03:32:50;;;;;;;3.90;3.50;;;;;;;;;;4972212;28;20450;-88
2021/09/23 03:35:17;;;;;;;8.80;3.90;;;;;;;;;;4975430;28;20481;-89
2021/09/23 03:37:45;;;;;;;4.83;4.00;;;;;;;;;;4975716;28;20819;-89
2021/09/23 03:40:14;;;;;;;5.50;4.27;;;6.60;99.90;;;;;;4975975;28;20439;-90
2021/09/23 03:42:41;;;;;;;4.47;3.87;;;;;;;;;;4971203;28;20450;-89
2021/09/23 03:45:09;;;;;;;6.20;4.43;;;6.60;99.90;;;;;;4972021;28;20446;-89
2021/09/23 03:47:37;;;;;;;5.77;4.17;;;;;;;;;;4972944;28;20455;-89
2021/09/23 03:50:04;;;;;;;5.43;3.97;;;;;;;;;;4975911;28;20438;-88
2021/09/23 03:52:31;;;;;;;5.37;4.00;;;;;;;;;;4975422;28;20482;-89
2021/09/23 03:54:58;;;;;;;5.80;4.73;;;;;;;;;;4975539;28;20478;-89
2021/09/23 03:57:27;;;;;;;4.70;4.20;;;;;;;;;;4975553;28;20451;-89
2021/09/23 03:59:55;;;;;;;4.27;3.50;;;;;;;;;;4982073;28;20965;-89
2021/09/23 04:02:22;;;;;;;7.53;3.77;;;;;;;;;;4974736;28;20442;-89
2021/09/23 04:04:49;;;;;;;5.30;4.07;;;;;;;;;;4975066;28;20461;-90
2021/09/23 04:07:17;;;;;;;5.83;4.43;;;;;;;;;;4975204;28;20818;-89
2021/09/23 04:09:44;;;;;;;7.37;4.40;;;;;;;;;;4975000;28;20455;-89
2021/09/23 04:12:11;;;;;;;6.80;4.90;;;;;;;;;;4972378;28;20450;-89
2021/09/23 04:14:41;;;;;;;5.47;4.20;;;6.40;99.90;;;;;;4972503;28;20446;-89
2021/09/23 04:17:08;;;;;;;5.80;4.23;;;;;;;;;;4970877;28;21012;-89
2021/09/23 04:19:35;;;;;;;6.17;4.03;;;;;;;;;;4970191;28;20828;-89
2021/09/23 04:22:03;;;;;;;8.70;6.57;;;;;;;;;;4975037;28;20470;-90
2021/09/23 04:24:30;;;;;;;6.70;4.40;;;;;;;;;;4972553;28;20446;-90
2021/09/23 04:26:57;;;;;;;7.50;5.50;;;;;;;;;;4972129;28;20441;-89
2021/09/23 04:29:25;;;;;;;8.93;4.67;;;;;;;;;;4974636;28;20457;-90
2021/09/23 04:31:53;;;;;;;5.90;4.70;;;6.30;99.90;;;;;;4970593;28;20846;-89
2021/09/23 04:34:20;;;;;;;6.27;4.30;;;;;;;;;;4974159;28;20450;-89
2021/09/23 04:36:48;;;;;;;5.73;4.87;;;;;;;;;;4974859;28;20505;-90
2021/09/23 04:39:16;;;;;;;5.90;4.77;;;;;;;;;;4970069;28;20438;-89
2021/09/23 04:41:43;;;;;;;7.40;5.03;;;;;;;;;;4975167;28;20464;-90
2021/09/23 04:44:11;;;;;;;6.40;4.50;;;;;;;;;;4974961;28;20930;-89
2021/09/23 04:46:38;;;;;;;4.53;4.07;;;;;;;;;;4973724;28;20926;-89
2021/09/23 04:49:07;;;;;;;6.13;4.50;;;6.10;99.90;;;;;;4972543;28;20457;-90
2021/09/23 04:51:34;;;;;;;6.63;4.60;;;;;;;;;;4970142;28;20968;-88
2021/09/23 04:54:03;;;;;;;6.90;4.77;;;;;;;;;;4971982;28;20446;-89
2021/09/23 04:56:30;;;;;;;8.80;5.43;;;;;;;;;;4971718;28;20563;-89
2021/09/23 04:58:58;;;;;;;7.40;4.70;;;;;;;;;;4980985;28;20450;-89
2021/09/23 05:01:25;;;;;;;5.57;4.53;;;;;;;;;;4980830;28;20446;-89
2021/09/23 05:03:52;;;;;;;7.80;4.50;;;;;;;;;;4975223;28;20456;-89
2021/09/23 05:06:21;;;;;;;11.70;5.43;;;6.10;99.90;;;;;;4974806;28;20457;-89
2021/09/23 05:08:48;;;;;;;6.30;4.60;;;;;;;;;;4972207;28;20497;-89
2021/09/23 05:11:15;;;;;;;7.37;4.53;;;;;;;;;;4975030;28;20438;-89
2021/09/23 05:13:42;;;;;;;6.43;5.53;;;;;;;;;;4971798;28;20446;-90
2021/09/23 05:16:10;;;;;;;6.50;5.17;;;;;;;;;;4974689;28;20497;-89
2021/09/23 05:18:37;;;;;;;8.47;6.47;;;;;;;;;;4973833;28;20450;-89
2021/09/23 05:21:04;;;;;;;7.57;5.90;;;;;;;;;;4971734;28;20473;-88
2021/09/23 05:23:32;;;;;;;7.53;6.00;;;6.80;99.90;;;;;;4972241;28;20443;-89
2021/09/23 05:26:00;;;;;;;7.07;5.27;;;;;;;;;;4970869;28;20454;-89
2021/09/23 05:28:27;;;;;;;8.73;5.60;;;;;;;;;;4978096;28;20946;-89
2021/09/23 05:30:54;;;;;;;9.30;6.10;;;;;;;;;;4970148;28;20446;-90
2021/09/23 05:33:22;;;;;;;8.00;6.13;;;;;;;;;;4967954;28;20461;-89
2021/09/23 05:35:49;;;;;;;14.60;7.17;;;;;;;;;;4972223;28;20513;-89
2021/09/23 05:38:17;;;;;;;9.17;6.80;;;7.10;99.90;;;;;;4974756;28;20434;-89
2021/09/23 05:40:45;;;;;;;9.70;6.77;;;7.30;99.90;;;;;;4970387;28;20445;-88
2021/09/23 05:43:13;;;;;;;12.73;8.73;;;;;;;;;;4971315;28;20906;-90
2021/09/23 05:45:40;;;;;;;17.17;8.67;;;;;;;;;;4974704;28;20439;-89
2021/09/23 05:48:07;;;;;;;11.60;7.57;;;;;;;;;;4976892;28;20469;-90
2021/09/23 05:50:34;;;;;;;16.53;7.90;;;;;;;;;;4978750;28;20449;-90
2021/09/23 05:53:02;;;;;;;9.13;7.63;;;;;;;;;;4978120;28;20497;-90
2021/09/23 05:55:30;;;;;;;12.40;7.50;;;;;;;;;;4978035;28;20442;-90
2021/09/23 05:57:58;;;;;;;11.90;7.23;;;;;;;;;;4975360;28;20454;-88
2021/09/23 06:00:26;;;;;;;12.40;6.20;;;;;;;;;;4974837;28;20485;-88
2021/09/23 06:02:54;;;;;;;6.80;5.70;;;11.10;99.90;;;;;;4977045;28;20457;-90
2021/09/23 06:05:21;;;;;;;7.50;5.70;;;;;;;;;;4970401;28;20512;-91
2021/09/23 06:07:49;;;;;;;7.30;5.40;;;;;;;;;;4977882;28;20493;-90
2021/09/23 06:10:16;;;;;;;6.17;5.57;;;;;;;;;;4975112;28;20434;-89
2021/09/23 06:12:44;;;;;;;6.17;4.87;;;;;;;;;;4977800;28;20533;-90
2021/09/23 06:15:13;;;;;;;7.23;5.40;;;;;;;;;;4975098;28;20461;-91
2021/09/23 06:17:42;;;;;;;6.30;4.43;;;;;;;;;;4982519;28;20489;-95
2021/09/23 06:20:15;;;;;;;5.63;4.87;;;;;;;;;;4986324;28;20462;-95
2021/09/23 06:22:43;;;;;;;7.90;5.63;;;;;;;;;;4951864;28;20465;-93
2021/09/23 06:25:11;;;;;;;7.23;5.20;;;;;;;;;;4985626;28;20464;-94
2021/09/23 06:27:40;;;;;;;5.63;4.90;;;;;;;;;;4984596;28;20454;-92
2021/09/23 06:30:08;;;;;;;5.67;4.10;;;;;;;;;;4981581;28;20456;-93
2021/09/23 06:32:36;;;;;;;5.13;4.30;;;;;;;;;;4982616;28;20454;-95
2021/09/23 06:35:05;;;;;;;6.57;5.03;;;;;;;;;;4980521;28;20457;-94
2021/09/23 06:37:32;;;;;;;6.80;4.50;;;;;;;;;;4975410;28;20568;-92
2021/09/23 06:39:59;;;;;;;6.40;4.37;;;;;;;;;;4978182;28;20870;-90
2021/09/23 06:42:27;;;;;;;4.93;4.43;;;;;;;;;;4978291;28;20517;-91
2021/09/23 06:44:54;;;;;;;5.10;4.60;;;;;;;;;;4974352;28;20492;-90
2021/09/23 06:47:21;;;;;;;5.40;4.70;;;;;;;;;;4957766;28;20471;-90
2021/09/23 06:49:51;;;;;;;7.27;5.00;;;13.70;99.90;;;;;;4960340;28;20450;-91
2021/09/23 06:52:19;;;;;;;5.17;4.67;;;;;;;;;;4961294;28;20505;-88
2021/09/23 06:54:46;;;;;;;4.67;4.27;;;;;;;;;;4959779;29;20935;-90
2021/09/23 06:57:13;;;;;;;7.00;4.77;;;;;;;;;;4977274;28;20495;-91
2021/09/23 06:59:41;;;;;;;7.50;5.03;;;;;;;;;;4957916;29;20443;-91
2021/09/23 07:02:08;;;;;;;7.40;4.33;;;;;;;;;;4957456;29;20455;-91
2021/09/23 07:04:35;;;;;;;4.83;4.27;;;;;;;;;;4957627;28;20439;-92
2021/09/23 07:07:04;;;;;;;5.67;4.33;;;;;;;;;;4974391;28;20465;-90
2021/09/23 07:09:31;;;;;;;6.20;3.77;;;;;;;;;;4974861;28;20511;-92
2021/09/23 07:12:00;;;;;;;6.50;4.23;;;;;;;;;;4976487;28;20454;-92
2021/09/23 07:14:29;;;;;;;6.10;4.57;;;15.30;99.90;;;;;;4976474;28;20839;-94
2021/09/23 07:16:56;;;;;;;5.63;3.70;;;;;;;;;;4974667;28;20565;-92
2021/09/23 07:19:23;;;;;;;4.80;3.87;;;;;;;;;;4976723;28;20431;-94
2021/09/23 07:21:51;;;;;;;5.87;3.90;;;;;;;;;;4975350;28;20446;-92
2021/09/23 07:24:19;;;;;;;4.60;4.20;;;;;;;;;;4976378;28;20439;-91
2021/09/23 07:26:46;;;;;;;4.87;4.00;;;;;;;;;;4976693;28;20873;-95
2021/09/23 07:29:15;;;;;;;5.93;3.90;;;;;;;;;;4976641;28;20441;-92
2021/09/23 07:31:43;;;;;;;4.53;3.50;;;;;;;;;;4973718;28;20556;-89
2021/09/23 07:34:10;;;;;;;5.33;4.43;;;;;;;;;;4977585;28;20441;-90
2021/09/23 07:36:37;;;;;;;7.27;3.30;;;;;;;;;;4982340;28;20482;-92
2021/09/23 07:39:08;;;;;;;5.67;4.23;;;16.60;99.90;;;;;;4976212;28;20434;-93
2021/09/23 07:41:38;;;;;;;5.20;4.30;;;16.90;99.90;;;;;;4973502;28;20446;-91
2021/09/23 07:44:06;;;;;;;4.33;3.13;;;;;;;;;;4973224;28;20941;-90
2021/09/23 07:46:33;;;;;;;5.40;3.80;;;16.20;99.90;;;;;;4972125;28;20478;-92
2021/09/23 07:49:01;;;;;;;5.00;3.80;;;;;;;;;;4973627;28;20450;-92
2021/09/23 07:51:28;;;;;;;3.97;3.57;;;;;;;;;;4976243;28;20458;-93
2021/09/23 07:53:55;;;;;;;3.93;3.57;;;;;;;;;;4980937;28;20453;-91
2021/09/23 07:56:22;;;;;;;5.40;3.50;;;;;;;;;;4992471;28;20472;-93
2021/09/23 07:58:51;;;;;;;4.53;3.10;;;18.00;99.90;;;;;;4995656;28;20806;-93
2021/09/23 08:01:18;;;;;;;5.33;3.20;;;;;;;;;;4990120;28;20449;-94
2021/09/23 08:03:45;;;;;;;4.87;3.53;;;;;;;;;;4995512;28;20465;-90
2021/09/23 08:06:13;;;;;;;3.73;2.57;;;;;;;;;;4995921;28;20454;-91
2021/09/23 08:08:40;;;;;;;3.47;2.70;;;;;;;;;;4992308;28;20524;-90
2021/09/23 08:11:07;;;;;;;4.07;3.03;;;;;;;;;;5009198;28;20454;-89
2021/09/23 08:13:34;;;;;;;3.43;2.80;;;;;;;;;;5005647;28;20533;-90
2021/09/23 08:16:02;;;;;;;4.87;2.80;;;18.30;99.90;;;;;;4992516;28;20456;-91
2021/09/23 08:18:30;;;;;;;3.03;2.73;;;;;;;;;;4994513;28;20460;-90
2021/09/23 08:20:57;;;;;;;3.93;2.60;;;;;;;;;;4995044;28;20457;-93
2021/09/23 08:23:24;;;;;;;4.20;3.03;;;;;;;;;;4992165;28;20500;-91
2021/09/23 08:25:52;;;;;;;2.77;2.33;;;;;;;;;;4994805;28;20471;-92
2021/09/23 08:28:23;;;;;;;2.97;2.27;;;;;;;;;;4992617;28;20536;-95
2021/09/23 08:30:50;;;;;;;2.60;2.20;;;;;;;;;;4995185;28;20464;-92
2021/09/23 08:33:19;;;;;;;3.03;2.80;;;;;;;;;;4990750;28;20871;-91
2021/09/23 08:35:46;;;;;;;3.77;2.63;;;;;;;;;;4995122;28;20429;-94
2021/09/23 08:38:18;;;;;;;5.40;2.93;;;;;;;;;;4996092;28;20515;-94
2021/09/23 08:40:47;;;;;;;3.60;2.30;;;;;;;;;;4990659;28;20523;-94
2021/09/23 08:43:14;;;;;;;2.57;1.93;;;;;;;;;;4992156;28;20540;-94
2021/09/23 08:45:41;;;;;;;6.33;3.37;;;;;;;;;;4994533;28;20484;-94
2021/09/23 08:48:09;;;;;;;3.93;2.63;;;;;;;;;;4986529;28;20478;-90
2021/09/23 08:50:39;;;;;;;3.07;2.83;;;20.20;99.90;;;;;;4991609;28;20452;-92
2021/09/23 08:53:06;;;;;;;4.63;2.40;;;;;;;;;;4987765;28;20484;-92
2021/09/23 08:55:34;;;;;;;3.70;2.60;;;;;;;;;;4989134;28;20429;-92
2021/09/23 08:58:03;;;;;;;4.70;2.30;;;19.30;99.90;;;;;;4988463;28;20488;-91
2021/09/23 09:00:30;;;;;;;2.60;2.40;;;;;;;;;;4994460;28;20507;-93
2021/09/23 09:03:04;;;;;;;2.83;2.40;;;21.30;99.20;;;;;;4993754;28;20438;-92
2021/09/23 09:05:32;;;;;;;3.23;2.70;;;21.50;97.20;;;;;;4994717;28;20532;-90
2021/09/23 09:08:06;;;;;;;3.23;2.63;;;22.40;95.30;;;;;;4994217;28;20434;-91
2021/09/23 09:10:34;;;;;;;4.67;2.30;;;;;;;;;;4994600;28;20451;-92
2021/09/23 09:13:02;;;;;;;4.50;2.30;;;;;;;;;;4993397;28;20800;-91
2021/09/23 09:18:16;;;;;;;3.53;2.07;;;20.80;97.30;;;;;;4993637;28;20492;-94
2021/09/23 09:20:57;;;;;;;3.03;2.00;;;21.60;97.00;;;;;;5012901;23;20491;-92
2021/09/23 09:23:31;;;;;;;2.33;2.10;;;22.60;96.20;;;;;;5035450;28;20455;-94
2021/09/23 09:25:58;;;;;;;3.87;2.57;;;;;;;;;;5036532;28;20599;-92
2021/09/23 09:28:25;;;;;;;2.47;2.27;;;;;;;;;;5035280;28;20470;-92
2021/09/23 09:30:56;;;;;;;3.77;3.00;;;21.40;96.50;;;;;;5037680;28;20454;-91
2021/09/23 09:33:24;;;;;;;4.47;2.30;;;;;;;;;;5032715;28;20439;-93
2021/09/23 09:35:51;;;;;;;2.33;2.00;;;;;;;;;;5034473;28;20926;-92
2021/09/23 09:38:18;;;;;;;2.30;1.80;;;;;;;;;;5037864;28;20495;-94
2021/09/23 09:40:46;;;;;;;1.90;1.80;;;;;;;;;;5032594;28;20431;-93
2021/09/23 09:43:17;;;;;;;1.50;1.40;;;23.20;93.80;;;;;;5037631;28;20462;-92
2021/09/23 09:45:44;;;;;;;4.07;1.93;;;;;;;;;;5038072;28;21016;-93
2021/09/23 09:48:11;;;;;;;2.60;2.40;;;;;;;;;;5032936;28;20431;-92
2021/09/23 09:50:42;;;;;;;5.23;2.10;;;21.80;93.90;;;;;;5042590;28;20444;-91
2021/09/23 09:53:12;;;;;;;2.40;2.00;;;22.60;92.50;;;;;;5046456;28;20813;-92
2021/09/23 09:55:40;;;;;;;2.30;2.10;;;23.30;93.60;;;;;;5042915;28;20824;-92
2021/09/23 09:58:10;;;;;;;2.47;2.27;;;;;;;;;;5035795;28;20491;-92
2021/09/23 10:00:42;;;;;;;3.60;2.10;;;;;;;;;;5017648;28;20445;-93
2021/09/23 10:03:09;;;;;;;86.27;70.27;;;;;;;;;;5018370;28;20499;-95
2021/09/23 10:05:45;;;;;;;95.80;85.73;;;;;;;;;;5014110;28;20494;-94
2021/09/23 10:08:13;;;;;;;227.70;112.13;;;;;;;;;;5031133;28;20489;-93
2021/09/23 10:10:40;;;;;;;91.47;81.60;;;;;;;;;;5037521;28;20477;-93
2021/09/23 10:13:10;;;;;;;3.17;2.17;;;23.50;94.50;;;;;;5035551;28;20800;-89
2021/09/23 10:15:37;;;;;;;2.40;2.03;;;;;;;;;;5030296;28;20444;-89
2021/09/23 10:18:04;;;;;;;5.53;3.70;;;;;;;;;;5048069;28;20434;-87
2021/09/23 10:20:31;;;;;;;4.00;2.73;;;;;;;;;;5056908;28;20515;-87
2021/09/23 10:23:00;;;;;;;10.27;9.47;;;;;;;;;;5041443;28;20451;-87
2021/09/23 10:25:30;;;;;;;2.13;1.93;;;23.00;98.00;;;;;;5040619;28;20462;-88
2021/09/23 10:27:59;;;;;;;111.00;97.93;;;;;;;;;;5034114;28;20495;-88
2021/09/23 10:30:29;;;;;;;3.13;2.60;;;23.50;96.40;;;;;;5037432;28;20447;-92
2021/09/23 10:32:57;;;;;;;8.20;7.40;;;;;;;;;;5032117;28;20450;-89
2021/09/23 10:35:24;;;;;;;9.03;8.13;;;;;;;;;;5041891;28;20464;-86
2021/09/23 10:37:54;;;;;;;2.10;1.80;;;23.00;92.80;;;;;;5038329;28;20459;-88
2021/09/23 10:40:21;;;;;;;2.53;1.97;;;;;;;;;;5037818;28;20447;-91
2021/09/23 10:42:50;;;;;;;1.40;1.30;;;22.80;92.70;;;;;;5016420;28;20455;-91
2021/09/23 10:45:19;;;;;;;5.57;1.80;;;23.40;92.60;;;;;;5017185;28;20451;-87
2021/09/23 10:47:49;;;;;;;3.43;1.53;;;23.00;92.30;;;;;;5018349;28;20482;-86
2021/09/23 10:50:24;;;;;;;1.87;1.60;;;23.40;91.40;;;;;;5018236;28;20486;-93
2021/09/23 10:52:53;;;;;;;1.90;1.70;;;;;;;;;;5020705;28;20483;-90
2021/09/23 10:55:21;;;;;;;3.80;1.67;;;24.20;90.60;;;;;;5057438;28;20505;-89
2021/09/23 10:57:49;;;;;;;2.00;1.80;;;24.00;90.00;;;;;;5057105;28;20451;-92
2021/09/23 11:00:17;;;;;;;1.83;1.73;;;24.60;89.00;;;;;;5058637;28;20427;-91
2021/09/23 11:02:48;;;;;;;2.37;2.00;;;24.20;89.50;;;;;;5054501;28;20442;-89
2021/09/23 11:05:16;;;;;;;2.00;1.80;;;23.80;91.30;;;;;;5055633;28;20447;-90
2021/09/23 11:07:44;;;;;;;2.30;1.80;;;24.30;90.50;;;;;;5056672;28;20482;-88
2021/09/23 11:10:15;;;;;;;4.30;2.07;;;24.40;88.90;;;;;;5055331;28;20470;-94
2021/09/23 11:12:42;;;;;;;2.60;1.87;;;;;;;;;;5061010;28;20431;-89
2021/09/23 11:15:14;;;;;;;1.87;1.77;;;24.90;85.90;;;;;;5058045;28;20447;-89
2021/09/23 11:17:42;;;;;;;2.90;2.00;;;24.20;82.30;;;;;;5055636;28;20479;-90
2021/09/23 11:20:12;;;;;;;2.60;1.83;;;23.30;85.50;;;;;;5056425;28;20479;-92
2021/09/23 11:22:41;;;;;;;3.93;2.03;;;23.20;86.50;;;;;;5021218;28;20445;-87
2021/09/23 11:25:12;;;;;;;2.37;1.80;;;23.60;87.20;;;;;;5068064;28;20797;-89
2021/09/23 11:27:41;;;;;;;2.37;1.83;;;23.30;87.60;;;;;;5057546;28;20487;-93
2021/09/23 11:30:12;;;;;;;2.63;2.20;;;23.80;88.30;;;;;;5057692;28;20446;-90
2021/09/23 11:32:46;;;;;;;1.93;1.83;;;24.10;86.80;;;;;;5057774;28;20446;-94
2021/09/23 11:35:14;;;;;;;3.10;2.03;;;;;;;;;;5054510;28;20442;-93
2021/09/23 11:37:42;;;;;;;3.40;1.90;;;;;;;;;;5062600;28;20466;-92
2021/09/23 11:40:11;;;;;;;2.17;2.00;;;;;;;;;;5066568;28;20443;-89
2021/09/23 11:42:43;;;;;;;2.27;2.07;;;;;;;;;;5016722;28;20442;-92
2021/09/23 11:45:14;;;;;;;2.27;1.90;;;24.20;84.90;;;;;;5057525;28;20442;-89
2021/09/23 11:47:47;;;;;;;2.17;1.93;;;23.90;85.80;;;;;;5058323;28;20493;-91
2021/09/23 11:50:24;;;;;;;2.07;1.97;;;24.20;85.20;;;;;;5056971;28;20477;-91
2021/09/23 11:52:55;;;;;;;2.00;1.90;;;24.30;82.40;;;;;;5052760;28;20447;-88
2021/09/23 11:55:23;;;;;;;4.53;1.90;;;;;;;;;;5054968;28;20443;-91
2021/09/23 11:58:00;;;;;;;2.47;2.27;;;24.00;83.00;;;;;;5051549;28;21000;-93
2021/09/23 12:00:32;;;;;;;1.70;1.60;;;23.80;82.10;;;;;;5054119;28;20461;-86
2021/09/23 12:02:59;;;;;;;2.00;1.90;;;;;;;;;;5053786;28;20451;-90
2021/09/23 12:05:28;;;;;;;5.03;2.23;;;;;;;;;;5057266;28;20455;-89
2021/09/23 12:07:57;;;;;;;2.57;2.10;;;25.00;85.00;;;;;;5055225;28;20478;-88
2021/09/23 12:10:24;;;;;;;3.60;1.90;;;;;;;;;;5051465;28;20442;-87
2021/09/23 12:12:58;;;;;;;2.30;2.00;;;24.20;83.20;;;;;;5049422;28;20427;-91
2021/09/23 12:15:27;;;;;;;1.93;1.73;;;;;;;;;;5045149;28;20445;-92
2021/09/23 12:17:57;;;;;;;4.00;1.87;;;24.50;83.70;;;;;;5054276;28;20558;-89
2021/09/23 12:20:37;;;;;;;4.30;2.33;;;;;;;;;;5054577;28;20494;-88
2021/09/23 12:26:09;;;;;;;2.03;1.83;;;24.10;81.60;;;;;;5131308;27;20860;-88
2021/09/23 12:28:42;;;;;;;3.17;2.47;;;23.80;88.10;;;;;;5102370;27;20485;-88
2021/09/23 12:31:11;;;;;;;2.47;1.93;;;24.00;85.00;;;;;;5073212;28;20433;-89
2021/09/23 12:33:53;;;;;;;3.03;2.50;;;24.40;88.30;;;;;;5070087;28;20449;-91
2021/09/23 12:36:26;;;;;;;2.70;1.90;;;24.80;86.50;;;;;;5069585;28;20457;-88
2021/09/23 12:39:04;;;;;;;2.67;1.90;;;;;;;;;;5069242;28;20438;-92
2021/09/23 12:41:32;;;;;;;1.80;1.70;;;25.10;87.80;;;;;;5071364;28;20441;-93
2021/09/23 12:44:08;;;;;;;2.30;2.10;;;24.80;84.10;;;;;;5071223;28;20485;-89
2021/09/23 12:46:35;;;;;;;1.80;1.60;;;;;;;;;;5069660;28;20437;-90
2021/09/23 12:49:16;;;;;;;2.80;2.20;;;24.70;83.70;;;;;;5070652;28;20446;-90
2021/09/23 12:51:46;;;;;;;3.40;2.10;;;25.00;85.80;;;;;;5074890;28;20460;-89
2021/09/23 12:54:31;;;;;;;2.07;1.63;;;25.10;82.10;;;;;;5085490;28;20456;-89
2021/09/23 12:57:06;;;;;;;3.30;1.90;;;25.50;84.60;;;;;;5071248;28;20438;-93
2021/09/23 12:59:34;;;;;;;3.13;2.13;;;25.00;81.50;;;;;;5070125;28;20454;-93
2021/09/23 13:02:09;;;;;;;2.23;2.00;;;25.40;83.80;;;;;;5070213;28;20441;-91
2021/09/23 13:04:36;;;;;;;2.20;2.00;;;;;;;;;;5067458;28;20485;-93
2021/09/23 13:07:18;;;;;;;3.03;1.90;;;25.60;82.20;;;;;;5071270;28;20900;-93
2021/09/23 13:10:01;;;;;;;2.50;2.20;;;25.50;84.20;;;;;;5067614;28;20454;-92
2021/09/23 13:12:38;;;;;;;2.90;2.13;;;25.30;84.40;;;;;;5071129;28;20441;-92
2021/09/23 13:15:20;;;;;;;4.50;2.93;;;25.50;84.90;;;;;;5067057;28;20450;-91
2021/09/23 13:17:58;;;;;;;2.80;2.27;;;;;;;;;;5067810;28;20446;-88
2021/09/23 13:20:25;;;;;;;3.10;2.27;;;;;;;;;;5051184;28;20435;-92
2021/09/23 13:22:52;;;;;;;2.50;2.17;;;;;;;;;;5049481;28;20461;-92
2021/09/23 13:25:19;;;;;;;3.10;2.10;;;;;;;;;;5059194;28;20485;-88
2021/09/23 13:27:48;;;;;;;1.90;1.80;;;26.50;83.30;;;;;;5056243;28;20445;-88
2021/09/23 13:30:15;;;;;;;3.40;2.10;;;;;;;;;;5057304;28;20468;-88
2021/09/23 13:32:46;;;;;;;7.90;2.27;;;25.70;86.70;;;;;;5069119;28;20456;-93
2021/09/23 13:35:14;;;;;;;2.57;2.37;;;25.50;87.60;;;;;;5057047;28;20447;-92
2021/09/23 13:37:43;;;;;;;5.80;2.53;;;25.80;87.10;;;;;;5039282;28;20447;-88
2021/09/23 13:40:12;;;;;;;3.00;2.60;;;26.30;87.60;;;;;;5058426;28;20435;-91
2021/09/23 13:42:40;;;;;;;3.47;2.60;;;;;;;;;;5054660;28;20454;-91
2021/09/23 13:45:10;;;;;;;5.00;2.83;;;27.40;88.00;;;;;;5057864;28;20838;-92
2021/09/23 13:47:37;;;;;;;2.57;2.30;;;;;;;;;;5058502;28;20806;-91
2021/09/23 13:50:05;;;;;;;3.83;2.67;;;25.60;88.60;;;;;;5058794;28;20474;-88
2021/09/23 13:52:33;;;;;;;5.77;2.70;;;;;;;;;;5060238;28;20443;-93
2021/09/23 13:55:00;;;;;;;3.23;2.93;;;;;;;;;;5062509;28;20445;-93
2021/09/23 13:57:27;;;;;;;4.60;2.23;;;;;;;;;;5057870;28;20801;-92
2021/09/23 13:59:54;;;;;;;2.90;2.60;;;;;;;;;;5065124;28;20896;-93
2021/09/23 14:02:23;;;;;;;4.20;2.77;;;;;;;;;;5076693;28;20533;-94
2021/09/23 14:04:50;;;;;;;2.43;2.23;;;;;;;;;;5075152;28;20849;-92
2021/09/23 14:07:19;;;;;;;4.00;2.60;;;25.20;89.40;;;;;;5054933;28;20439;-93
2021/09/23 14:09:46;;;;;;;6.13;2.87;;;;;;;;;;5050713;28;20446;-94
2021/09/23 14:12:13;;;;;;;4.00;2.63;;;;;;;;;;5063052;28;20441;-94
2021/09/23 14:14:41;;;;;;;3.67;2.57;;;;;;;;;;5063126;28;20439;-93
2021/09/23 14:17:09;;;;;;;2.77;2.57;;;;;;;;;;5063891;28;20463;-94